Rechercher aéroport 
image banner adimage banner adimage banner ad
image banner ad

28CN - San Joaquin Community Hospital

Situé à Bakersfield, United States

ICAO - 28CN, IATA -

Données fournies par Airmate  

Information générale

Coordonnées: N35°22'60" W119°1'15"
Élévation : 465 feet MSL.
Variation magnétique : 14° East
Voir autres Aéroports à California

Données opérationnelles

Special qualification required
Heure actuelle UTC:
Heure actuelle locale:
Météo à : KBFL - Meadows Field ( 7 km )
METAR: KBFL 251554Z 31006KT 8SM CLR 30/01 A2992 RMK AO2 SLP124 T03000006
TAF: KBFL 251120Z 2512/2612 VRB06KT P6SM FEW250 FM260300 VRB05KT P6SM FEW250 FM260500 33007KT P6SM FEW250
Voir NOTAMs / SUP AIP / TFR affectant cet aéroport [VIEW]
Fréquences de communication: [VIEW]

Pistes:

Coordonnées de l'aéroport

Adresse: Bakersfield United States

Vue satellite de 28CN